createdAt,value
2022-09-14T00:01:27.560Z,98464.34
2022-09-14T00:03:57.226Z,98466.29
2022-09-14T00:06:25.317Z,98465.17
2022-09-14T00:08:55.440Z,98461.00
2022-09-14T00:11:24.427Z,98458.81
2022-09-14T00:13:52.679Z,98459.23
2022-09-14T00:16:23.265Z,98458.02
2022-09-14T00:18:54.312Z,98458.79
2022-09-14T00:21:22.683Z,98453.50
2022-09-14T00:23:49.919Z,98454.75
2022-09-14T00:26:20.024Z,98450.59
2022-09-14T00:28:51.706Z,98450.85
2022-09-14T00:31:19.507Z,98455.09
2022-09-14T00:33:48.026Z,98454.52
2022-09-14T00:36:23.982Z,98453.73
2022-09-14T00:38:51.851Z,98455.02
2022-09-14T00:41:22.189Z,98460.84
2022-09-14T00:44:03.254Z,98455.83
2022-09-14T00:46:35.896Z,98457.57
2022-09-14T00:49:09.631Z,98459.67
2022-09-14T00:51:41.390Z,98461.08
2022-09-14T00:54:08.437Z,98455.79
2022-09-14T00:56:36.309Z,98454.24
2022-09-14T00:59:12.669Z,98453.46
2022-09-14T01:01:39.934Z,98453.92
2022-09-14T01:04:06.969Z,98452.49
2022-09-14T01:06:38.032Z,98447.52
2022-09-14T01:09:12.635Z,98446.59
2022-09-14T01:11:46.371Z,98442.23
2022-09-14T01:14:48.308Z,98443.60
2022-09-14T01:17:28.051Z,98440.59
2022-09-14T01:20:25.612Z,98440.52
2022-09-14T01:23:10.103Z,98438.38
2022-09-14T01:26:02.696Z,98439.69
2022-09-14T01:28:35.811Z,98433.70
2022-09-14T01:31:11.753Z,98432.42
2022-09-14T01:33:54.309Z,98436.15
2022-09-14T01:36:23.804Z,98432.00
2022-09-14T01:38:53.299Z,98431.77
2022-09-14T01:41:25.743Z,98430.80
2022-09-14T01:43:59.665Z,98430.20
2022-09-14T01:46:33.165Z,98426.44
2022-09-14T01:49:23.047Z,98430.65
2022-09-14T01:51:56.181Z,98425.34
2022-09-14T01:54:27.532Z,98420.75
2022-09-14T01:57:02.330Z,98417.66
2022-09-14T01:59:34.582Z,98412.96
2022-09-14T02:02:04.547Z,98413.15
2022-09-14T02:04:58.681Z,98411.40
2022-09-14T02:07:26.036Z,98406.74
2022-09-14T02:09:54.928Z,98402.84
2022-09-14T02:12:22.492Z,98396.53
2022-09-14T02:14:52.515Z,98401.63
2022-09-14T02:17:21.393Z,98399.52
2022-09-14T02:20:00.248Z,98401.25
2022-09-14T02:22:29.312Z,98401.71
2022-09-14T02:24:57.281Z,98399.55
2022-09-14T02:27:24.947Z,98402.16
2022-09-14T02:29:53.266Z,98398.30
2022-09-14T02:32:47.405Z,98400.91
2022-09-14T02:35:39.949Z,98398.32
2022-09-14T02:38:26.139Z,98402.02
2022-09-14T02:40:59.542Z,98400.75
2022-09-14T02:44:17.399Z,98398.36
2022-09-14T02:47:09.743Z,98395.25
2022-09-14T02:50:18.160Z,98389.64
2022-09-14T02:52:52.152Z,98385.77
2022-09-14T02:55:23.598Z,98389.19
2022-09-14T02:58:09.415Z,98393.52
2022-09-14T03:00:39.832Z,98387.73
2022-09-14T03:03:08.907Z,98391.34
2022-09-14T03:05:36.880Z,98386.39
2022-09-14T03:08:04.947Z,98383.34
2022-09-14T03:10:33.637Z,98386.20
2022-09-14T03:13:00.681Z,98388.19
2022-09-14T03:15:28.241Z,98387.16
2022-09-14T03:17:55.289Z,98382.46
2022-09-14T03:20:31.038Z,98384.21
2022-09-14T03:22:59.112Z,98386.95
2022-09-14T03:25:27.596Z,98384.39
2022-09-14T03:27:59.461Z,98384.79
2022-09-14T03:30:27.271Z,98385.88
2022-09-14T03:32:54.163Z,98381.86
2022-09-14T03:35:21.277Z,98381.68
2022-09-14T03:37:48.256Z,98381.25
2022-09-14T03:40:21.470Z,98381.23
2022-09-14T03:42:50.754Z,98389.55
2022-09-14T03:45:19.766Z,98389.88
2022-09-14T03:47:47.734Z,98391.55
2022-09-14T03:50:16.115Z,98390.25
2022-09-14T03:52:43.042Z,98389.89
2022-09-14T03:55:10.594Z,98391.12
2022-09-14T03:57:38.463Z,98391.50
2022-09-14T04:00:08.140Z,98389.80
2022-09-14T04:02:41.144Z,98389.89
2022-09-14T04:05:08.426Z,98386.95
2022-09-14T04:07:36.442Z,98387.91
2022-09-14T04:10:05.614Z,98388.03
2022-09-14T04:12:37.582Z,98397.59
2022-09-14T04:15:07.561Z,98394.58
2022-09-14T04:17:34.605Z,98402.82
2022-09-14T04:20:01.855Z,98402.95
2022-09-14T04:22:29.108Z,98402.39
2022-09-14T04:24:55.877Z,98406.95
2022-09-14T04:27:23.000Z,98408.35
2022-09-14T04:29:50.561Z,98411.57
2022-09-14T04:32:17.811Z,98412.19
2022-09-14T04:34:45.165Z,98412.66
2022-09-14T04:37:12.126Z,98413.20
2022-09-14T04:39:39.169Z,98413.64
2022-09-14T04:42:07.743Z,98416.44
2022-09-14T04:44:34.793Z,98418.14
2022-09-14T04:47:01.897Z,98421.50
2022-09-14T04:49:28.985Z,98418.67
2022-09-14T04:51:55.933Z,98414.73
2022-09-14T04:54:22.875Z,98412.48
2022-09-14T04:56:49.821Z,98411.52
2022-09-14T04:59:16.665Z,98412.39
2022-09-14T05:01:46.849Z,98416.95
2022-09-14T05:04:15.776Z,98416.83
2022-09-14T05:06:43.950Z,98417.52
2022-09-14T05:09:16.233Z,98419.05
2022-09-14T05:11:44.255Z,98430.13
2022-09-14T05:14:13.181Z,98439.27
2022-09-14T05:16:42.760Z,98438.25
2022-09-14T05:19:16.493Z,98438.27
2022-09-14T05:21:44.551Z,98436.13
2022-09-14T05:24:14.479Z,98434.91
2022-09-14T05:26:44.602Z,98438.36
2022-09-14T05:29:13.392Z,98433.45
2022-09-14T05:31:40.576Z,98429.81
2022-09-14T05:34:09.739Z,98428.83
2022-09-14T05:36:38.471Z,98428.50
2022-09-14T05:39:06.715Z,98424.89
2022-09-14T05:41:34.257Z,98426.75
2022-09-14T05:44:01.406Z,98433.06
2022-09-14T05:46:28.925Z,98435.63
2022-09-14T05:48:56.221Z,98436.21
2022-09-14T05:51:25.927Z,98434.50
2022-09-14T05:53:56.691Z,98430.64
2022-09-14T05:56:26.898Z,98425.13
2022-09-14T05:58:53.883Z,98427.74
2022-09-14T06:01:26.481Z,98427.14
2022-09-14T06:03:55.502Z,98425.58
2022-09-14T06:06:24.085Z,98429.48
2022-09-14T06:08:53.619Z,98430.70
2022-09-14T06:11:23.711Z,98429.08
2022-09-14T06:13:51.590Z,98420.45
2022-09-14T06:16:53.851Z,98422.55
2022-09-14T06:19:20.898Z,98420.82
2022-09-14T06:21:47.948Z,98420.89
2022-09-14T06:24:14.994Z,98420.98
2022-09-14T06:26:42.142Z,98423.48
2022-09-14T06:29:09.394Z,98423.96
2022-09-14T06:31:36.545Z,98424.07
2022-09-14T06:34:04.216Z,98417.83
2022-09-14T06:36:31.457Z,98417.42
2022-09-14T06:39:00.450Z,98409.92
2022-09-14T06:41:30.731Z,98404.13
2022-09-14T06:43:59.972Z,98400.13
2022-09-14T06:46:29.951Z,98399.84
2022-09-14T06:49:04.001Z,98404.02
2022-09-14T06:51:34.050Z,98402.33
2022-09-14T06:54:02.191Z,98402.79
2022-09-14T06:56:32.424Z,98406.35
2022-09-14T06:58:59.884Z,98407.23
2022-09-14T07:01:27.836Z,98402.17
2022-09-14T07:03:55.296Z,98403.63
2022-09-14T07:06:25.076Z,98405.37
2022-09-14T07:08:53.461Z,98401.48
2022-09-14T07:11:23.880Z,98396.70
2022-09-14T07:13:50.946Z,98396.40
2022-09-14T07:16:17.984Z,98397.75
2022-09-14T07:18:45.086Z,98393.04
2022-09-14T07:21:17.939Z,98393.13
2022-09-14T07:23:46.962Z,98393.88
2022-09-14T07:26:13.986Z,98392.53
2022-09-14T07:28:42.564Z,98389.23
2022-09-14T07:31:21.758Z,98390.64
2022-09-14T07:33:52.275Z,98390.50
2022-09-14T07:36:19.704Z,98390.16
2022-09-14T07:38:52.589Z,98390.05
2022-09-14T07:41:27.096Z,98383.44
2022-09-14T07:43:57.067Z,98382.15
2022-09-14T07:46:24.398Z,98380.47
2022-09-14T07:48:59.471Z,98382.11
2022-09-14T07:51:28.180Z,98384.73
2022-09-14T07:53:56.150Z,98382.98
2022-09-14T07:56:25.897Z,98375.98
2022-09-14T07:59:07.119Z,98374.66
2022-09-14T08:01:43.898Z,98375.23
2022-09-14T08:04:11.284Z,98375.45
2022-09-14T08:06:40.851Z,98370.80
2022-09-14T08:09:11.249Z,98361.86
2022-09-14T08:11:38.844Z,98365.61
2022-09-14T08:14:11.778Z,98365.75
2022-09-14T08:16:40.981Z,98365.98
2022-09-14T08:19:13.011Z,98356.32
2022-09-14T08:21:45.586Z,98363.84
2022-09-14T08:24:16.633Z,98363.40
2022-09-14T08:26:43.751Z,98363.11
2022-09-14T08:29:16.176Z,98358.79
2022-09-14T08:31:45.754Z,98357.71
2022-09-14T08:34:15.229Z,98355.47
2022-09-14T08:36:44.184Z,98351.36
2022-09-14T08:39:13.189Z,98350.59
2022-09-14T08:41:59.690Z,98342.75
2022-09-14T08:44:42.044Z,98341.00
2022-09-14T08:47:28.930Z,98343.82
2022-09-14T08:50:18.370Z,98346.40
2022-09-14T08:52:48.546Z,98343.34
2022-09-14T08:55:30.996Z,98347.69
2022-09-14T08:58:18.040Z,98338.36
2022-09-14T09:00:53.077Z,98340.25
2022-09-14T09:03:41.502Z,98343.98
2022-09-14T09:06:37.919Z,98338.56
2022-09-14T09:09:32.507Z,98334.75
2022-09-14T09:12:00.416Z,98333.64
2022-09-14T09:14:35.910Z,98338.17
2022-09-14T09:17:13.202Z,98342.27
2022-09-14T09:19:52.333Z,98346.27
2022-09-14T09:22:23.491Z,98349.64
2022-09-14T09:24:54.474Z,98351.05
2022-09-14T09:27:27.830Z,98347.95
2022-09-14T09:29:54.863Z,98342.86
2022-09-14T09:32:26.311Z,98343.88
2022-09-14T09:35:22.433Z,98346.02
2022-09-14T09:37:57.184Z,98340.58
2022-09-14T09:40:34.470Z,98340.76
2022-09-14T09:43:33.593Z,98342.55
2022-09-14T09:46:12.546Z,98341.49
2022-09-14T09:48:44.113Z,98341.84
2022-09-14T09:51:14.146Z,98340.83
2022-09-14T09:53:51.937Z,98341.45
2022-09-14T09:56:32.105Z,98342.88
2022-09-14T09:58:59.492Z,98341.86
2022-09-14T10:01:27.973Z,98335.90
2022-09-14T10:04:07.482Z,98338.16
2022-09-14T10:06:46.816Z,98335.52
2022-09-14T10:09:20.522Z,98334.02
2022-09-14T10:11:56.070Z,98337.78
2022-09-14T10:14:34.231Z,98343.08
2022-09-14T10:17:20.739Z,98342.40
2022-09-14T10:19:54.137Z,98344.48
2022-09-14T10:22:28.856Z,98345.55
2022-09-14T10:25:02.285Z,98348.70
2022-09-14T10:27:38.276Z,98348.92
2022-09-14T10:30:12.745Z,98351.58
2022-09-14T10:32:44.001Z,98351.67
2022-09-14T10:35:15.885Z,98346.91
2022-09-14T10:37:58.296Z,98346.88
2022-09-14T10:40:36.092Z,98336.40
2022-09-14T10:43:24.542Z,98330.36
2022-09-14T10:45:56.603Z,98327.09
2022-09-14T10:48:48.228Z,98324.52
2022-09-14T10:51:40.501Z,98325.94
2022-09-14T10:54:20.902Z,98327.15
2022-09-14T10:57:13.208Z,98322.95
2022-09-14T11:00:06.431Z,98323.67
2022-09-14T11:03:00.462Z,98320.20
2022-09-14T11:05:34.751Z,98316.42
2022-09-14T11:08:33.498Z,98314.64
2022-09-14T11:11:23.401Z,98317.27
2022-09-14T11:14:24.754Z,98314.02
2022-09-14T11:17:10.131Z,98314.70
2022-09-14T11:19:59.666Z,98311.34
2022-09-14T11:23:18.278Z,98309.52
2022-09-14T11:25:54.723Z,98307.59
2022-09-14T11:28:30.420Z,98304.19
2022-09-14T11:31:06.718Z,98300.36
2022-09-14T11:33:58.132Z,98297.60
2022-09-14T11:36:47.720Z,98293.14
2022-09-14T11:39:20.727Z,98293.52
2022-09-14T11:42:06.103Z,98297.70
2022-09-14T11:44:41.797Z,98293.98
2022-09-14T11:47:21.910Z,98297.48
2022-09-14T11:50:25.318Z,98293.48
2022-09-14T11:53:03.645Z,98286.25
2022-09-14T11:55:31.593Z,98284.39
2022-09-14T11:58:00.171Z,98282.55
2022-09-14T12:01:02.750Z,98282.73
2022-09-14T12:03:52.693Z,98283.50
2022-09-14T12:06:39.855Z,98283.61
2022-09-14T12:09:17.350Z,98281.38
2022-09-14T12:11:45.929Z,98277.05
2022-09-14T12:14:14.001Z,98275.71
2022-09-14T12:20:43.589Z,98266.83
2022-09-14T12:23:22.877Z,98269.80
2022-09-14T12:25:59.439Z,98272.38
2022-09-14T12:28:40.414Z,98264.04
2022-09-14T12:31:36.343Z,98268.67
2022-09-14T12:34:15.178Z,98268.44
2022-09-14T12:36:42.620Z,98265.79
2022-09-14T12:39:24.830Z,98266.38
2022-09-14T12:41:51.868Z,98269.73
2022-09-14T12:44:37.657Z,98266.56
2022-09-14T12:47:29.688Z,98265.45
2022-09-14T12:50:20.394Z,98262.98
2022-09-14T12:52:47.380Z,98260.20
2022-09-14T12:55:24.318Z,98256.79
2022-09-14T12:58:05.086Z,98256.01
2022-09-14T13:00:47.804Z,98261.70
2022-09-14T13:03:48.946Z,98261.24
2022-09-14T13:06:17.628Z,98262.23
2022-09-14T13:08:48.027Z,98260.67
2022-09-14T13:11:21.400Z,98257.48
2022-09-14T13:13:50.279Z,98263.67
2022-09-14T13:16:28.986Z,98264.98
2022-09-14T13:19:17.828Z,98258.48
2022-09-14T13:21:49.877Z,98257.14
2022-09-14T13:24:45.219Z,98259.06
2022-09-14T13:27:22.844Z,98263.66
2022-09-14T13:30:05.974Z,98262.85
2022-09-14T13:32:36.559Z,98270.59
2022-09-14T13:35:06.024Z,98269.89
2022-09-14T13:37:33.233Z,98271.05
2022-09-14T13:40:00.434Z,98271.84
2022-09-14T13:42:27.796Z,98270.71
2022-09-14T13:44:55.182Z,98271.73
2022-09-14T13:47:25.746Z,98266.11
2022-09-14T13:49:54.841Z,98269.11
2022-09-14T13:52:21.964Z,98281.73
2022-09-14T13:55:07.856Z,98275.45
2022-09-14T13:57:35.226Z,98263.30
2022-09-14T14:00:15.088Z,98262.71
2022-09-14T14:02:49.261Z,98271.02
2022-09-14T14:05:41.174Z,98274.55
2022-09-14T14:08:26.231Z,98269.17
2022-09-14T14:10:55.140Z,98269.48
2022-09-14T14:13:38.333Z,98271.58
2022-09-14T14:16:20.492Z,98274.98
2022-09-14T14:19:05.945Z,98278.10
2022-09-14T14:21:33.914Z,98282.05
2022-09-14T14:24:28.313Z,98284.02
2022-09-14T14:26:57.399Z,98288.34
2022-09-14T14:29:25.981Z,98291.89
2022-09-14T14:31:56.034Z,98285.38
2022-09-14T14:34:29.504Z,98282.67
2022-09-14T14:36:56.899Z,98284.92
2022-09-14T14:39:25.459Z,98284.54
2022-09-14T14:41:53.776Z,98289.21
2022-09-14T14:44:24.551Z,98288.35
2022-09-14T14:46:52.008Z,98290.73
2022-09-14T14:49:20.796Z,98294.35
2022-09-14T14:51:48.633Z,98291.75
2022-09-14T14:54:18.048Z,98294.59
2022-09-14T14:56:47.329Z,98296.14
2022-09-14T14:59:17.483Z,98293.48
2022-09-14T15:01:44.700Z,98300.05
2022-09-14T15:04:12.315Z,98304.04
2022-09-14T15:06:39.352Z,98301.86
2022-09-14T15:09:15.710Z,98307.09
2022-09-14T15:11:42.860Z,98307.30
2022-09-14T15:14:15.536Z,98301.18
2022-09-14T15:16:43.351Z,98295.09
2022-09-14T15:19:11.270Z,98291.58
2022-09-14T15:21:39.649Z,98289.98
2022-09-14T15:24:07.619Z,98287.66
2022-09-14T15:26:34.975Z,98292.42
2022-09-14T15:29:03.046Z,98293.70
2022-09-14T15:31:30.828Z,98296.65
2022-09-14T15:33:59.667Z,98294.85
2022-09-14T15:36:39.751Z,98291.80
2022-09-14T15:39:10.292Z,98291.54
2022-09-14T15:41:37.538Z,98291.30
2022-09-14T15:44:05.188Z,98290.45
2022-09-14T15:46:32.243Z,98288.66
2022-09-14T15:48:59.717Z,98292.84
2022-09-14T15:51:26.855Z,98298.88
2022-09-14T15:53:54.130Z,98292.02
2022-09-14T15:56:21.148Z,98292.31
2022-09-14T15:58:48.401Z,98289.34
2022-09-14T16:01:17.859Z,98287.36
2022-09-14T16:03:45.262Z,98283.46
2022-09-14T16:06:13.846Z,98283.45
2022-09-14T16:08:42.123Z,98283.95
2022-09-14T16:11:10.397Z,98284.83
2022-09-14T16:13:37.464Z,98283.79
2022-09-14T16:16:09.596Z,98280.14
2022-09-14T16:18:37.786Z,98278.17
2022-09-14T16:21:19.274Z,98282.48
2022-09-14T16:23:50.606Z,98282.05
2022-09-14T16:26:23.813Z,98279.26
2022-09-14T16:28:52.804Z,98277.16
2022-09-14T16:31:25.928Z,98281.00
2022-09-14T16:33:56.114Z,98281.59
2022-09-14T16:36:27.361Z,98285.05
2022-09-14T16:38:59.900Z,98281.73
2022-09-14T16:41:28.318Z,98286.04
2022-09-14T16:43:56.320Z,98287.63
2022-09-14T16:46:24.607Z,98289.37
2022-09-14T16:48:52.125Z,98291.64
2022-09-14T16:51:23.576Z,98291.86
2022-09-14T16:53:52.468Z,98295.16
2022-09-14T16:56:22.488Z,98293.30
2022-09-14T16:58:51.957Z,98296.14
2022-09-14T17:01:25.601Z,98294.38
2022-09-14T17:03:54.727Z,98292.22
2022-09-14T17:06:25.008Z,98293.76
2022-09-14T17:09:00.435Z,98297.12
2022-09-14T17:11:29.856Z,98301.20
2022-09-14T17:13:57.516Z,98302.77
2022-09-14T17:16:26.375Z,98306.36
2022-09-14T17:18:56.509Z,98306.55
2022-09-14T17:21:28.375Z,98302.77
2022-09-14T17:23:55.755Z,98301.46
2022-09-14T17:26:23.687Z,98303.11
2022-09-14T17:28:54.263Z,98302.02
2022-09-14T17:31:23.933Z,98306.72
2022-09-14T17:33:54.190Z,98307.43
2022-09-14T17:36:21.831Z,98307.75
2022-09-14T17:38:50.402Z,98306.30
2022-09-14T17:41:23.266Z,98306.33
2022-09-14T17:43:56.347Z,98311.70
2022-09-14T17:46:24.655Z,98316.83
2022-09-14T17:48:52.821Z,98317.80
2022-09-14T17:51:26.205Z,98317.06
2022-09-14T17:53:55.178Z,98316.02
2022-09-14T17:56:24.344Z,98313.05
2022-09-14T17:59:07.930Z,98313.48
2022-09-14T18:01:35.064Z,98310.55
2022-09-14T18:04:10.404Z,98313.67
2022-09-14T18:06:40.734Z,98317.02
2022-09-14T18:09:13.148Z,98316.87
2022-09-14T18:11:40.914Z,98312.15
2022-09-14T18:14:12.788Z,98313.73
2022-09-14T18:16:40.876Z,98311.04
2022-09-14T18:19:08.408Z,98309.10
2022-09-14T18:21:35.964Z,98316.55
2022-09-14T18:24:03.745Z,98313.35
2022-09-14T18:26:30.720Z,98311.44
2022-09-14T18:28:58.875Z,98314.38
2022-09-14T18:31:26.142Z,98311.95
2022-09-14T18:33:59.514Z,98308.14
2022-09-14T18:36:29.616Z,98308.86
2022-09-14T18:38:58.632Z,98312.98
2022-09-14T18:41:29.356Z,98311.86
2022-09-14T18:43:56.377Z,98310.16
2022-09-14T18:46:27.829Z,98307.05
2022-09-14T18:48:57.939Z,98301.45
2022-09-14T18:51:27.028Z,98299.39
2022-09-14T18:53:59.440Z,98296.95
2022-09-14T18:56:28.070Z,98293.34
2022-09-14T18:58:55.133Z,98297.41
2022-09-14T19:01:22.607Z,98291.86
2022-09-14T19:03:50.089Z,98292.66
2022-09-14T19:06:18.966Z,98295.27
2022-09-14T19:08:46.526Z,98298.86
2022-09-14T19:11:14.902Z,98298.67
2022-09-14T19:13:42.565Z,98302.52
2022-09-14T19:16:12.967Z,98307.67
2022-09-14T19:18:41.168Z,98310.77
2022-09-14T19:21:10.484Z,98313.76
2022-09-14T19:23:37.923Z,98319.36
2022-09-14T19:26:07.532Z,98320.02
2022-09-14T19:28:35.472Z,98316.89
2022-09-14T19:31:12.424Z,98316.05
2022-09-14T19:33:45.090Z,98316.84
2022-09-14T19:36:22.144Z,98317.31
2022-09-14T19:38:51.961Z,98317.19
2022-09-14T19:41:20.372Z,98315.77
2022-09-14T19:43:47.788Z,98318.41
2022-09-14T19:46:18.424Z,98317.64
2022-09-14T19:48:46.624Z,98316.18
2022-09-14T19:51:20.404Z,98316.22
2022-09-14T19:53:49.842Z,98316.12
2022-09-14T19:56:20.147Z,98316.04
2022-09-14T19:58:50.424Z,98315.20
2022-09-14T20:01:19.722Z,98314.52
2022-09-14T20:03:48.395Z,98316.21
2022-09-14T20:06:29.771Z,98314.25
2022-09-14T20:09:02.349Z,98312.48
2022-09-14T20:11:31.906Z,98309.73
2022-09-14T20:14:01.492Z,98307.61
2022-09-14T20:16:31.958Z,98308.81
2022-09-14T20:19:03.741Z,98312.70
2022-09-14T20:21:30.767Z,98310.86
2022-09-14T20:24:17.768Z,98311.73
2022-09-14T20:26:50.307Z,98305.64
2022-09-14T20:29:19.044Z,98309.13
2022-09-14T20:31:47.376Z,98301.65
2022-09-14T20:34:16.663Z,98296.70
2022-09-14T20:36:44.496Z,98296.35
2022-09-14T20:39:11.657Z,98298.48
2022-09-14T20:41:39.477Z,98300.45
2022-09-14T20:44:07.062Z,98300.59
2022-09-14T20:46:39.314Z,98302.98
2022-09-14T20:49:11.502Z,98308.98
2022-09-14T20:51:39.510Z,98301.23
2022-09-14T20:54:07.748Z,98303.89
2022-09-14T20:56:36.531Z,98303.08
2022-09-14T20:59:06.075Z,98304.61
2022-09-14T21:01:35.739Z,98305.05
2022-09-14T21:04:07.014Z,98303.41
2022-09-14T21:06:40.591Z,98309.34
2022-09-14T21:09:09.462Z,98300.37
2022-09-14T21:11:36.777Z,98299.78
2022-09-14T21:14:04.223Z,98299.39
2022-09-14T21:16:34.514Z,98299.56
2022-09-14T21:19:06.779Z,98300.44
2022-09-14T21:21:34.756Z,98297.71
2022-09-14T21:24:02.729Z,98298.77
2022-09-14T21:26:34.122Z,98301.02
2022-09-14T21:29:05.156Z,98302.07
2022-09-14T21:31:34.163Z,98296.66
2022-09-14T21:34:03.360Z,98298.86
2022-09-14T21:36:37.731Z,98295.61
2022-09-14T21:39:11.818Z,98295.33
2022-09-14T21:41:40.750Z,98295.10
2022-09-14T21:44:08.274Z,98294.31
2022-09-14T21:46:35.882Z,98293.13
2022-09-14T21:49:03.084Z,98292.60
2022-09-14T21:51:33.226Z,98296.06
2022-09-14T21:54:05.474Z,98292.89
2022-09-14T21:56:37.125Z,98291.01
2022-09-14T21:59:08.395Z,98292.70
2022-09-14T22:01:36.154Z,98295.37
2022-09-14T22:04:04.213Z,98290.95
2022-09-14T22:06:32.513Z,98295.27
2022-09-14T22:09:01.146Z,98294.84
2022-09-14T22:11:33.796Z,98292.16
2022-09-14T22:14:18.360Z,98287.45
2022-09-14T22:16:46.887Z,98287.61
2022-09-14T22:19:22.019Z,98285.64
2022-09-14T22:21:51.126Z,98287.69
2022-09-14T22:24:36.392Z,98286.61
2022-09-14T22:27:10.097Z,98285.21
2022-09-14T22:29:40.708Z,98288.16
2022-09-14T22:32:11.254Z,98288.15
2022-09-14T22:34:40.198Z,98286.33
2022-09-14T22:37:07.812Z,98281.66
2022-09-14T22:39:34.893Z,98278.55
2022-09-14T22:42:02.675Z,98274.73
2022-09-14T22:44:29.771Z,98278.67
2022-09-14T22:46:56.820Z,98276.16
2022-09-14T22:49:24.071Z,98274.77
2022-09-14T22:51:51.323Z,98268.40
2022-09-14T22:54:19.500Z,98254.88
2022-09-14T22:56:46.547Z,98258.23
2022-09-14T22:59:13.803Z,98257.29
2022-09-14T23:01:41.683Z,98256.92
2022-09-14T23:04:12.091Z,98254.70
2022-09-14T23:06:45.281Z,98261.10
2022-09-14T23:09:16.054Z,98253.73
2022-09-14T23:11:44.889Z,98256.86
2022-09-14T23:14:13.171Z,98252.85
2022-09-14T23:16:40.294Z,98254.45
2022-09-14T23:19:07.485Z,98257.41
2022-09-14T23:21:35.865Z,98262.70
2022-09-14T23:24:06.803Z,98257.60
2022-09-14T23:26:34.462Z,98255.61
2022-09-14T23:29:06.936Z,98257.40
2022-09-14T23:31:34.292Z,98256.70
2022-09-14T23:34:03.185Z,98254.94
2022-09-14T23:36:31.049Z,98252.38
2022-09-14T23:38:58.813Z,98248.44
2022-09-14T23:41:27.399Z,98242.63
2022-09-14T23:43:55.162Z,98242.42
2022-09-14T23:46:23.213Z,98242.70
2022-09-14T23:48:51.207Z,98242.33
2022-09-14T23:51:18.661Z,98237.95
2022-09-14T23:53:45.705Z,98238.18
2022-09-14T23:56:13.620Z,98238.44
2022-09-14T23:58:42.124Z,98237.73
